Time;durP1;ratioP1;P1;durP2;ratioP2;P2;SDS_P1;SDS_P2;PMS_P1;PMS_P2;Temp;Humidity;BMP_temperature;BMP_pressure;BME280_temperature;BME280_humidity;BME280_pressure;Samples;Min_cycle;Max_cycle;Signal;HPM_P1;HPM_P2
2021/07/14 00:00:10;;;;;;;17.80;13.88;;;24.70;83.60;;;;;;5053330;28;20036;-61
2021/07/14 00:02:35;;;;;;;17.23;11.23;;;24.60;84.00;;;;;;5052892;28;20025;-61
2021/07/14 00:05:07;;;;;;;15.70;11.65;;;24.60;84.40;;;;;;5052939;28;20591;-59
2021/07/14 00:07:32;;;;;;;20.98;14.68;;;24.60;84.60;;;;;;5053011;28;20033;-58
2021/07/14 00:09:58;;;;;;;16.45;12.90;;;24.50;84.70;;;;;;5052835;28;20040;-59
2021/07/14 00:12:25;;;;;;;16.15;12.43;;;24.40;84.80;;;;;;5052878;28;20096;-61
2021/07/14 00:15:05;;;;;;;16.08;11.82;;;24.40;85.20;;;;;;5052878;28;20036;-58
2021/07/14 00:17:49;;;;;;;18.00;12.82;;;24.30;85.00;;;;;;5053041;28;20024;-59
2021/07/14 00:22:59;;;;;;;19.52;13.13;;;24.30;85.80;;;;;;5053051;28;20043;-59
2021/07/14 00:25:26;;;;;;;17.63;13.98;;;24.30;84.80;;;;;;5052875;28;20025;-60
2021/07/14 00:27:52;;;;;;;16.35;12.20;;;24.30;84.40;;;;;;5052856;28;20096;-58
2021/07/14 00:30:26;;;;;;;12.50;11.20;;;24.30;84.30;;;;;;5052748;28;20503;-57
2021/07/14 00:32:52;;;;;;;14.63;10.90;;;24.30;84.00;;;;;;5052701;28;20031;-59
2021/07/14 00:35:18;;;;;;;12.00;10.63;;;24.30;83.20;;;;;;5067914;28;20037;-56
2021/07/14 00:37:44;;;;;;;12.40;10.57;;;24.30;83.30;;;;;;5052721;28;20028;-58
2021/07/14 00:40:11;;;;;;;15.60;10.90;;;24.30;83.20;;;;;;5052936;28;20082;-57
2021/07/14 00:42:37;;;;;;;15.50;11.73;;;24.20;82.60;;;;;;5052512;28;20032;-63
2021/07/14 00:45:05;;;;;;;14.43;10.88;;;24.30;81.90;;;;;;5052618;28;20108;-61
2021/07/14 00:47:33;;;;;;;14.25;10.63;;;24.30;81.70;;;;;;5067683;28;20043;-62
2021/07/14 00:50:00;;;;;;;12.43;10.23;;;24.30;81.10;;;;;;5053653;28;20021;-61
2021/07/14 00:52:26;;;;;;;14.27;10.52;;;24.30;80.90;;;;;;5056111;28;20072;-57
2021/07/14 00:54:55;;;;;;;10.70;9.60;;;24.30;80.50;;;;;;5056132;28;20033;-57
2021/07/14 00:57:24;;;;;;;13.35;10.13;;;24.40;80.50;;;;;;5056130;28;20472;-59
2021/07/14 00:59:50;;;;;;;13.48;9.88;;;24.40;80.50;;;;;;5056092;28;20057;-63
2021/07/14 01:02:16;;;;;;;11.07;9.98;;;24.30;80.20;;;;;;5056157;28;20518;-59
2021/07/14 01:04:49;;;;;;;10.70;9.70;;;24.30;80.40;;;;;;5055909;28;20032;-60
2021/07/14 01:07:18;;;;;;;10.93;9.77;;;24.30;80.10;;;;;;5056040;28;20039;-58
2021/07/14 01:10:19;;;;;;;10.15;9.13;;;24.30;79.90;;;;;;5056141;28;20032;-57
2021/07/14 01:12:44;;;;;;;10.65;8.60;;;24.40;79.60;;;;;;5055582;28;20091;-58
2021/07/14 01:15:13;;;;;;;11.98;9.50;;;24.40;79.10;;;;;;5056063;28;20122;-61
2021/07/14 01:18:02;;;;;;;11.98;9.52;;;24.50;79.00;;;;;;5055985;28;20337;-62
2021/07/14 01:20:49;;;;;;;11.60;9.50;;;24.50;79.30;;;;;;5053536;28;20095;-61
2021/07/14 01:23:35;;;;;;;12.05;9.05;;;24.50;79.00;;;;;;5053449;28;20075;-63
2021/07/14 01:26:16;;;;;;;12.95;9.00;;;24.50;79.10;;;;;;5053415;28;20037;-62
2021/07/14 01:28:45;;;;;;;11.33;8.60;;;24.50;79.00;;;;;;5053398;28;20400;-60
2021/07/14 01:31:18;;;;;;;14.45;8.80;;;24.50;79.30;;;;;;5053375;28;20032;-57
2021/07/14 01:33:46;;;;;;;11.40;10.02;;;24.40;79.50;;;;;;5053412;28;20565;-60
2021/07/14 01:36:17;;;;;;;13.50;10.55;;;24.40;79.90;;;;;;5053169;28;20484;-60
2021/07/14 01:38:45;;;;;;;13.53;10.27;;;24.30;80.00;;;;;;5053060;28;20041;-62
2021/07/14 01:41:14;;;;;;;13.43;10.73;;;24.30;80.00;;;;;;5053014;28;20052;-63
2021/07/14 01:43:43;;;;;;;11.93;9.82;;;24.30;80.40;;;;;;5053114;28;20499;-56
2021/07/14 01:46:11;;;;;;;13.82;10.15;;;24.20;80.60;;;;;;5053131;28;20029;-57
2021/07/14 01:48:39;;;;;;;13.38;9.68;;;24.10;81.40;;;;;;5053044;28;20033;-59
2021/07/14 01:51:05;;;;;;;10.80;9.75;;;24.00;81.50;;;;;;5052843;28;20180;-64
2021/07/14 01:53:35;;;;;;;12.27;10.13;;;24.00;81.70;;;;;;5052823;28;20045;-62
2021/07/14 01:56:03;;;;;;;12.63;9.82;;;24.00;82.10;;;;;;5052927;28;20075;-57
2021/07/14 01:58:30;;;;;;;13.48;10.38;;;23.90;83.00;;;;;;5051961;28;20040;-61
2021/07/14 02:00:59;;;;;;;12.45;10.68;;;23.80;83.70;;;;;;5054916;28;20025;-58
2021/07/14 02:06:03;;;;;;;15.73;11.55;;;23.70;84.40;;;;;;5069169;28;20499;-57
2021/07/14 02:08:31;;;;;;;12.98;10.63;;;23.70;84.90;;;;;;5054710;28;20021;-63
2021/07/14 02:10:58;;;;;;;14.48;11.38;;;23.60;85.30;;;;;;5069476;28;20126;-60
2021/07/14 02:13:29;;;;;;;13.98;11.90;;;23.50;85.90;;;;;;5054514;28;20029;-60
2021/07/14 02:15:58;;;;;;;15.83;12.10;;;23.50;86.10;;;;;;5054852;28;20388;-58
2021/07/14 02:18:26;;;;;;;16.60;11.68;;;23.60;85.90;;;;;;5054437;28;20136;-59
2021/07/14 02:20:55;;;;;;;12.98;11.57;;;23.60;85.70;;;;;;5054279;28;20029;-59
2021/07/14 02:23:21;;;;;;;13.15;11.48;;;23.60;85.50;;;;;;5054271;28;20041;-62
2021/07/14 02:25:47;;;;;;;15.73;10.90;;;23.60;85.50;;;;;;5054650;28;20028;-61
2021/07/14 02:28:13;;;;;;;13.82;12.25;;;23.60;85.90;;;;;;5054615;28;20035;-56
2021/07/14 02:30:39;;;;;;;14.38;12.75;;;23.60;86.10;;;;;;5054429;28;20021;-58
2021/07/14 02:33:10;;;;;;;14.70;11.65;;;23.60;86.10;;;;;;5054313;28;20037;-56
2021/07/14 02:35:41;;;;;;;14.52;11.60;;;23.70;86.00;;;;;;5054346;28;20033;-60
2021/07/14 02:38:34;;;;;;;14.63;11.15;;;23.70;85.70;;;;;;5055335;28;20569;-59
2021/07/14 02:41:05;;;;;;;13.35;11.55;;;23.70;85.50;;;;;;5071923;28;20082;-60
2021/07/14 02:43:34;;;;;;;12.50;11.25;;;23.80;85.50;;;;;;5071664;28;20036;-63
2021/07/14 02:46:07;;;;;;;14.35;11.02;;;23.80;85.60;;;;;;5071606;28;20032;-61
2021/07/14 02:48:33;;;;;;;12.55;11.23;;;23.90;85.30;;;;;;5071244;28;20063;-62
2021/07/14 02:51:01;;;;;;;15.82;11.30;;;23.90;84.60;;;;;;5071089;28;20028;-57
2021/07/14 02:53:38;;;;;;;12.45;11.20;;;24.00;84.70;;;;;;5037508;28;20199;-61
2021/07/14 02:56:13;;;;;;;15.52;10.80;;;23.90;84.40;;;;;;5071471;28;20071;-58
2021/07/14 02:58:44;;;;;;;12.50;10.82;;;24.00;84.50;;;;;;5071581;28;20563;-62
2021/07/14 03:01:13;;;;;;;13.93;11.13;;;24.00;84.40;;;;;;5071519;28;20437;-59
2021/07/14 03:03:39;;;;;;;16.45;10.88;;;24.00;84.40;;;;;;5071483;28;20074;-61
2021/07/14 03:06:06;;;;;;;11.95;10.60;;;24.00;84.00;;;;;;5071540;28;20111;-59
2021/07/14 03:08:33;;;;;;;13.15;9.95;;;24.00;84.00;;;;;;5064475;28;20083;-60
2021/07/14 03:11:01;;;;;;;14.02;10.63;;;24.10;84.20;;;;;;5053571;28;20475;-60
2021/07/14 03:13:29;;;;;;;12.80;10.20;;;24.20;83.10;;;;;;5070477;28;20111;-63
2021/07/14 03:15:56;;;;;;;15.43;10.52;;;24.20;82.80;;;;;;5071472;28;20073;-61
2021/07/14 03:18:27;;;;;;;12.50;10.27;;;24.20;83.20;;;;;;5071314;28;20400;-62
2021/07/14 03:20:55;;;;;;;15.75;10.23;;;24.30;82.80;;;;;;5071396;28;20021;-61
2021/07/14 03:23:21;;;;;;;10.43;9.35;;;24.30;82.30;;;;;;5071303;28;20115;-62
2021/07/14 03:25:52;;;;;;;11.15;10.00;;;24.30;81.70;;;;;;5071378;28;20024;-59
2021/07/14 03:28:19;;;;;;;13.00;10.35;;;24.30;81.60;;;;;;5037846;28;20033;-57
2021/07/14 03:30:46;;;;;;;12.90;9.40;;;24.40;82.00;;;;;;5070950;28;20071;-61
2021/07/14 03:33:13;;;;;;;12.10;9.45;;;24.40;82.20;;;;;;5071013;28;20056;-58
2021/07/14 03:35:39;;;;;;;13.80;10.73;;;24.40;82.00;;;;;;5071022;28;20055;-58
2021/07/14 03:38:10;;;;;;;12.80;9.95;;;24.40;81.80;;;;;;5037903;28;20037;-56
2021/07/14 03:40:39;;;;;;;12.65;9.25;;;24.50;81.30;;;;;;5070951;28;20043;-63
2021/07/14 03:43:05;;;;;;;12.25;9.85;;;24.60;81.00;;;;;;5071100;28;20082;-56
2021/07/14 03:45:33;;;;;;;11.63;9.70;;;24.60;80.90;;;;;;5053769;28;20472;-56
2021/07/14 03:48:00;;;;;;;12.93;10.15;;;24.80;80.40;;;;;;5053257;28;20108;-58
2021/07/14 03:50:26;;;;;;;10.95;9.23;;;24.80;80.00;;;;;;5053121;28;20028;-55
2021/07/14 03:52:53;;;;;;;13.20;10.20;;;24.90;79.80;;;;;;5052995;28;20045;-61
2021/07/14 03:55:20;;;;;;;10.98;9.70;;;25.00;79.70;;;;;;5068005;28;20095;-58
2021/07/14 03:57:46;;;;;;;14.20;9.48;;;25.00;79.30;;;;;;5051233;28;20120;-57
2021/07/14 04:00:12;;;;;;;10.35;9.07;;;25.00;79.00;;;;;;5068139;28;20129;-60
2021/07/14 04:02:43;;;;;;;12.98;9.35;;;25.00;79.00;;;;;;5051056;28;20499;-61
2021/07/14 04:05:09;;;;;;;13.48;9.18;;;25.00;79.10;;;;;;5052984;28;20036;-59
2021/07/14 04:07:37;;;;;;;15.02;9.38;;;25.10;79.20;;;;;;5053098;28;20020;-57
2021/07/14 04:10:04;;;;;;;12.27;8.93;;;25.10;78.90;;;;;;5053053;28;20083;-57
2021/07/14 04:12:30;;;;;;;11.18;9.38;;;25.20;78.70;;;;;;5053156;28;20108;-58
2021/07/14 04:14:56;;;;;;;13.75;9.95;;;25.30;78.60;;;;;;5034560;28;20041;-61
2021/07/14 04:17:21;;;;;;;15.35;9.40;;;25.30;78.10;;;;;;5075256;28;20086;-62
2021/07/14 04:19:47;;;;;;;14.52;9.27;;;25.50;77.90;;;;;;5054271;28;20494;-57
2021/07/14 04:22:13;;;;;;;11.77;9.18;;;25.60;77.80;;;;;;5073255;28;20387;-60
2021/07/14 04:24:40;;;;;;;10.45;8.60;;;25.70;77.40;;;;;;5073337;28;20045;-60
2021/07/14 04:27:08;;;;;;;14.43;9.38;;;25.70;77.40;;;;;;5076801;28;20020;-58
2021/07/14 04:29:34;;;;;;;12.90;10.13;;;25.80;77.30;;;;;;5076665;28;20028;-60
2021/07/14 04:32:01;;;;;;;12.55;9.13;;;25.90;77.30;;;;;;5073199;28;20382;-61
2021/07/14 04:34:28;;;;;;;11.45;9.63;;;26.00;77.30;;;;;;5076778;28;20050;-61
2021/07/14 04:36:53;;;;;;;10.43;8.90;;;26.00;76.80;;;;;;5074793;28;20044;-59
2021/07/14 04:39:19;;;;;;;10.52;8.82;;;26.10;76.40;;;;;;5076476;28;20494;-57
2021/07/14 04:41:45;;;;;;;10.90;9.63;;;26.10;76.40;;;;;;5063018;28;20502;-57
2021/07/14 04:44:14;;;;;;;12.68;8.60;;;26.20;77.30;;;;;;5071368;28;20079;-57
2021/07/14 04:46:40;;;;;;;12.65;8.68;;;26.20;76.70;;;;;;5056351;28;20051;-63
2021/07/14 04:49:06;;;;;;;11.15;7.97;;;26.30;76.30;;;;;;5040365;28;20040;-57
2021/07/14 04:51:32;;;;;;;12.30;8.55;;;26.50;75.30;;;;;;5064498;28;20532;-59
2021/07/14 04:53:58;;;;;;;11.52;8.60;;;26.50;75.20;;;;;;5064760;28;20048;-60
2021/07/14 04:56:23;;;;;;;15.45;9.57;;;26.40;75.60;;;;;;5065611;28;20066;-62
2021/07/14 04:58:50;;;;;;;10.80;9.00;;;26.40;75.20;;;;;;5066571;28;20032;-62
2021/07/14 05:01:17;;;;;;;11.88;8.65;;;26.40;75.50;;;;;;5064763;28;20116;-60
2021/07/14 05:03:45;;;;;;;11.32;9.05;;;26.40;76.10;;;;;;5070274;28;20028;-59
2021/07/14 05:06:17;;;;;;;12.98;9.45;;;26.50;75.90;;;;;;5064584;28;20033;-60
2021/07/14 05:08:44;;;;;;;14.07;9.32;;;26.50;75.70;;;;;;5069988;28;20033;-60
2021/07/14 05:11:12;;;;;;;11.45;9.52;;;26.50;76.10;;;;;;5065111;28;20044;-61
2021/07/14 05:13:37;;;;;;;12.45;9.88;;;26.50;76.20;;;;;;5067080;28;20064;-65
2021/07/14 05:16:03;;;;;;;11.73;9.38;;;26.60;76.80;;;;;;5064425;28;20060;-61
2021/07/14 05:18:29;;;;;;;11.38;8.88;;;26.80;76.60;;;;;;5075864;28;20108;-62
2021/07/14 05:20:55;;;;;;;18.65;9.05;;;26.70;76.00;;;;;;5053608;28;20548;-60
2021/07/14 05:23:21;;;;;;;12.30;8.63;;;26.80;75.80;;;;;;5035379;28;20065;-57
2021/07/14 05:25:46;;;;;;;9.48;8.43;;;26.80;75.70;;;;;;5035588;28;20061;-58
2021/07/14 05:28:12;;;;;;;11.32;8.70;;;26.90;75.40;;;;;;5049629;28;20061;-65
2021/07/14 05:30:39;;;;;;;10.05;8.63;;;27.00;75.10;;;;;;5055496;28;20464;-65
2021/07/14 05:33:05;;;;;;;10.10;8.68;;;27.10;75.30;;;;;;5055332;28;20037;-67
2021/07/14 05:35:31;;;;;;;12.73;9.13;;;27.30;74.60;;;;;;5055267;28;20479;-60
2021/07/14 05:37:57;;;;;;;14.57;9.23;;;27.30;74.20;;;;;;5055358;28;20033;-59
2021/07/14 05:40:23;;;;;;;14.32;9.60;;;27.50;74.00;;;;;;5055320;28;20017;-59
2021/07/14 05:42:49;;;;;;;12.98;9.52;;;27.30;75.50;;;;;;5051837;28;20033;-60
2021/07/14 05:45:15;;;;;;;13.05;9.80;;;27.30;77.00;;;;;;5068719;28;20083;-61
2021/07/14 05:47:42;;;;;;;14.15;9.60;;;27.30;76.50;;;;;;5056928;28;20086;-58
2021/07/14 05:50:08;;;;;;;12.07;9.77;;;27.30;76.40;;;;;;5070225;28;20487;-58
2021/07/14 05:52:34;;;;;;;13.85;9.80;;;27.40;77.30;;;;;;5069151;28;20480;-60
2021/07/14 05:55:00;;;;;;;12.82;9.52;;;27.40;76.60;;;;;;5048355;28;20039;-58
2021/07/14 05:57:26;;;;;;;13.70;9.93;;;27.40;75.60;;;;;;5055166;28;20029;-62
2021/07/14 05:59:51;;;;;;;15.20;9.40;;;27.60;76.10;;;;;;5069890;28;20037;-61
2021/07/14 06:02:18;;;;;;;13.23;9.68;;;27.80;76.10;;;;;;5055266;28;20126;-60
2021/07/14 06:04:44;;;;;;;16.63;10.57;;;27.90;74.60;;;;;;5054964;28;20033;-60
2021/07/14 06:07:09;;;;;;;14.93;9.55;;;28.00;74.10;;;;;;5065040;28;20082;-60
2021/07/14 06:09:35;;;;;;;11.90;10.15;;;28.10;75.50;;;;;;5069624;28;20112;-60
2021/07/14 06:12:01;;;;;;;17.58;10.20;;;28.10;74.00;;;;;;5069923;28;20037;-58
2021/07/14 06:14:27;;;;;;;17.35;9.82;;;28.10;73.40;;;;;;5069442;28;20048;-60
2021/07/14 06:16:55;;;;;;;12.55;8.95;;;28.30;74.30;;;;;;5068713;28;20041;-59
2021/07/14 06:19:21;;;;;;;12.25;9.40;;;28.70;72.50;;;;;;5061947;28;20033;-59
2021/07/14 06:21:47;;;;;;;15.00;9.13;;;28.80;71.60;;;;;;5070109;28;20029;-60
2021/07/14 06:24:13;;;;;;;11.52;9.20;;;;;;;;;;5070112;28;20150;-60
2021/07/14 06:26:39;;;;;;;13.93;9.13;;;29.20;72.40;;;;;;5072066;28;20017;-61
2021/07/14 06:29:05;;;;;;;15.85;9.35;;;29.40;75.40;;;;;;5073851;28;20032;-61
2021/07/14 06:44:14;;;;;;;15.07;9.52;;;;;;;;;;5100630;27;20396;-59
2021/07/14 06:46:40;;;;;;;15.35;9.65;;;;;;;;;;5095574;28;20735;-60
2021/07/14 06:49:06;;;;;;;13.23;9.02;;;;;;;;;;5100327;28;20036;-59
2021/07/14 06:51:32;;;;;;;17.52;9.88;;;31.00;73.60;;;;;;5076256;28;20043;-61
2021/07/14 06:53:58;;;;;;;13.77;8.52;;;30.70;74.50;;;;;;5047178;28;20081;-60
2021/07/14 06:56:24;;;;;;;12.82;9.52;;;;;;;;;;5100260;28;20078;-59
2021/07/14 06:58:50;;;;;;;13.00;8.90;;;;;;;;;;5088160;28;20040;-58
2021/07/14 07:01:16;;;;;;;20.08;17.95;;;;;;;;;;5096468;28;20021;-59
2021/07/14 07:03:42;;;;;;;15.73;9.98;;;31.70;65.90;;;;;;5092664;28;20031;-60
2021/07/14 07:06:08;;;;;;;20.10;15.73;;;;;;;;;;5061590;28;20036;-60
2021/07/14 07:08:35;;;;;;;13.20;9.48;;;;;;;;;;5066131;28;20032;-59
2021/07/14 07:11:01;;;;;;;20.95;16.10;;;32.20;83.40;;;;;;5096072;28;20028;-59
2021/07/14 07:13:28;;;;;;;14.13;9.35;;;;;;;;;;5095803;28;20028;-60
2021/07/14 07:15:55;;;;;;;11.80;9.38;;;;;;;;;;5104785;28;20024;-61
2021/07/14 07:18:21;;;;;;;18.80;11.73;;;;;;;;;;5098032;28;20382;-62
2021/07/14 07:20:49;;;;;;;14.02;8.68;;;32.90;61.00;;;;;;5073038;28;20035;-72
2021/07/14 07:23:15;;;;;;;12.25;8.48;;;32.70;60.80;;;;;;5076444;28;20032;-61
2021/07/14 07:25:42;;;;;;;14.93;8.90;;;;;;;;;;5069777;28;20071;-59
2021/07/14 07:28:14;;;;;;;8.90;7.82;;;33.20;59.50;;;;;;5078603;28;20037;-60
2021/07/14 07:30:40;;;;;;;11.30;7.97;;;33.00;59.60;;;;;;5076029;28;20040;-58
2021/07/14 07:33:06;;;;;;;11.90;7.78;;;33.10;59.10;;;;;;5067006;28;20210;-60
2021/07/14 07:35:32;;;;;;;12.48;7.82;;;33.00;58.90;;;;;;5068104;28;20458;-59
2021/07/14 07:37:57;;;;;;;12.45;7.88;;;32.90;58.90;;;;;;5069210;28;20040;-59
2021/07/14 07:40:23;;;;;;;10.23;8.02;;;33.00;59.80;;;;;;5021847;28;20037;-60
2021/07/14 07:42:49;;;;;;;13.98;8.73;;;33.30;60.00;;;;;;5084892;28;20131;-60
2021/07/14 07:45:15;;;;;;;13.02;9.13;;;33.30;59.50;;;;;;5036468;28;20054;-60
2021/07/14 07:47:41;;;;;;;13.32;8.23;;;33.20;58.60;;;;;;5063888;28;20033;-60
2021/07/14 07:50:08;;;;;;;10.38;7.75;;;33.40;60.40;;;;;;5055375;28;20456;-60
2021/07/14 07:52:34;;;;;;;11.57;8.13;;;33.40;58.40;;;;;;5014852;28;20214;-60
2021/07/14 07:55:00;;;;;;;14.15;8.43;;;33.30;59.20;;;;;;5065499;28;20032;-60
2021/07/14 07:57:28;;;;;;;12.50;9.57;;;33.40;59.40;;;;;;5063427;28;20511;-60
2021/07/14 07:59:54;;;;;;;14.00;9.98;;;33.70;59.10;;;;;;5065350;28;20040;-59
2021/07/14 08:02:20;;;;;;;15.73;9.95;;;34.10;59.10;;;;;;5091129;28;20024;-60
2021/07/14 08:04:45;;;;;;;17.17;10.63;;;34.50;63.80;;;;;;5085928;28;20045;-60
2021/07/14 08:07:11;;;;;;;19.42;9.05;;;34.80;58.00;;;;;;5086690;28;20074;-61
2021/07/14 08:09:37;;;;;;;13.40;8.20;;;34.70;55.80;;;;;;5064836;28;20042;-61
2021/07/14 08:12:04;;;;;;;10.45;8.40;;;;;;;;;;5060137;28;20502;-60
2021/07/14 08:14:30;;;;;;;12.82;8.77;;;35.30;80.10;;;;;;5077063;28;20131;-60
2021/07/14 08:16:56;;;;;;;14.63;8.00;;;35.70;62.90;;;;;;5061437;28;20170;-60
2021/07/14 08:19:22;;;;;;;12.43;8.32;;;;;;;;;;5066485;28;20538;-60
2021/07/14 08:21:48;;;;;;;12.93;7.75;;;36.20;54.20;;;;;;5089538;28;20119;-60
2021/07/14 08:24:13;;;;;;;13.70;8.57;;;36.10;53.20;;;;;;5058724;28;20127;-60
2021/07/14 08:26:40;;;;;;;11.40;7.43;;;;;;;;;;5087740;28;20031;-61
2021/07/14 08:29:06;;;;;;;11.63;7.80;;;;;;;;;;5057805;28;20055;-61
2021/07/14 08:31:32;;;;;;;12.77;7.88;;;33.20;48.10;;;;;;5093076;28;20032;-58
2021/07/14 08:33:58;;;;;;;12.50;8.13;;;;;;;;;;5065502;28;20036;-59
2021/07/14 08:36:24;;;;;;;14.40;8.48;;;;;;;;;;5086307;28;20476;-59
2021/07/14 08:38:51;;;;;;;11.57;8.07;;;;;;;;;;5089330;28;20421;-59
2021/07/14 08:41:20;;;;;;;12.30;7.47;;;40.00;83.30;;;;;;5053498;28;20110;-59
2021/07/14 08:43:46;;;;;;;11.40;7.50;;;39.70;48.50;;;;;;5069675;28;20533;-59
2021/07/14 08:46:13;;;;;;;11.75;7.78;;;39.50;52.20;;;;;;5089575;28;20028;-59
2021/07/14 08:48:39;;;;;;;10.88;7.57;;;38.80;47.30;;;;;;5090221;28;20063;-59
2021/07/14 08:51:06;;;;;;;12.95;6.47;;;37.60;46.10;;;;;;5072426;28;20506;-56
2021/07/14 08:53:33;;;;;;;13.25;6.30;;;37.40;45.90;;;;;;5088021;28;20083;-56
2021/07/14 08:56:00;;;;;;;11.40;6.15;;;37.20;46.20;;;;;;5084881;28;20082;-56
2021/07/14 08:58:27;;;;;;;10.70;6.55;;;37.60;45.00;;;;;;5086129;28;20028;-64
2021/07/14 09:00:56;;;;;;;10.90;6.43;;;37.40;45.20;;;;;;5076534;28;20459;-65
2021/07/14 09:03:22;;;;;;;11.52;7.15;;;38.30;46.10;;;;;;5081719;28;20482;-61
2021/07/14 09:05:48;;;;;;;12.13;6.68;;;39.50;51.50;;;;;;5085608;28;20078;-61
2021/07/14 09:08:15;;;;;;;12.77;6.30;;;39.00;63.80;;;;;;5059534;28;20036;-60
2021/07/14 09:10:41;;;;;;;8.93;6.35;;;38.10;65.60;;;;;;5059957;28;20493;-59
2021/07/14 09:13:10;;;;;;;9.90;5.43;;;37.90;44.20;;;;;;5052457;28;20045;-62
2021/07/14 09:15:43;;;;;;;15.32;5.50;;;37.30;43.30;;;;;;5055763;28;20123;-61
2021/07/14 09:18:12;;;;;;;12.80;5.88;;;;;;;;;;5035534;28;20076;-58
2021/07/14 09:20:38;;;;;;;9.75;6.10;;;36.80;78.20;;;;;;5060928;28;20657;-61
2021/07/14 09:23:04;;;;;;;9.93;5.40;;;37.40;46.10;;;;;;5056364;28;20028;-60
2021/07/14 09:25:39;;;;;;;13.23;4.95;;;37.40;43.60;;;;;;5059504;28;20039;-61
2021/07/14 09:28:07;;;;;;;11.25;5.47;;;37.80;42.70;;;;;;5061849;28;20055;-60
2021/07/14 09:30:33;;;;;;;8.55;5.22;;;;;;;;;;5052197;28;20498;-60
2021/07/14 09:33:01;;;;;;;12.18;6.25;;;;;;;;;;5056121;28;20048;-59
2021/07/14 09:35:47;;;;;;;9.88;4.95;;;;;;;;;;5070647;28;20407;-60
2021/07/14 09:38:14;;;;;;;10.40;5.70;;;;;;;;;;5038702;28;20098;-59
2021/07/14 09:40:41;;;;;;;14.85;5.53;;;;;;;;;;5092993;28;20070;-59
2021/07/14 09:43:09;;;;;;;12.70;5.68;;;;;;;;;;5092773;28;20040;-58
2021/07/14 09:45:36;;;;;;;11.27;6.03;;;;;;;;;;5093062;28;20027;-60
2021/07/14 09:48:03;;;;;;;10.82;6.28;;;;;;;;;;5092952;28;20486;-61
2021/07/14 09:50:41;;;;;;;10.05;5.40;;;;;;;;;;5040930;28;20040;-61
2021/07/14 09:53:08;;;;;;;14.05;7.95;;;;;;;;;;5092897;28;20036;-61
2021/07/14 09:55:35;;;;;;;10.63;6.25;;;;;;;;;;5092813;28;20042;-60
2021/07/14 09:58:12;;;;;;;12.20;6.10;;;;;;;;;;5057258;28;20040;-60
2021/07/14 10:00:42;;;;;;;23.92;7.85;;;;;;;;;;5092705;28;20118;-61
2021/07/14 10:03:08;;;;;;;9.10;5.20;;;;;;;;;;5057105;28;20032;-59
2021/07/14 10:05:34;;;;;;;13.05;5.90;;;42.60;76.70;;;;;;5057043;28;20047;-60
2021/07/14 10:08:19;;;;;;;14.35;6.80;;;;;;;;;;5092328;28;20040;-60
2021/07/14 10:10:46;;;;;;;11.93;5.28;;;;;;;;;;5092617;28;20480;-61
2021/07/14 10:13:12;;;;;;;11.15;5.38;;;;;;;;;;5056945;28;20040;-61
2021/07/14 10:15:39;;;;;;;17.40;6.05;;;;;;;;;;5092551;28;20383;-61
2021/07/14 10:18:10;;;;;;;12.85;5.50;;;;;;;;;;5092594;28;20039;-60
2021/07/14 10:20:38;;;;;;;9.82;5.30;;;;;;;;;;5092634;28;20081;-62
2021/07/14 10:23:09;;;;;;;13.48;5.22;;;;;;;;;;5093574;28;20032;-60
2021/07/14 10:25:36;;;;;;;12.23;4.65;;;;;;;;;;5093583;28;20123;-60
2021/07/14 10:28:05;;;;;;;10.02;5.00;;;44.70;67.00;;;;;;5088169;28;20016;-61
2021/07/14 10:30:31;;;;;;;10.43;5.47;;;44.60;51.20;;;;;;5092473;28;20035;-61
2021/07/14 10:32:58;;;;;;;12.00;5.40;;;44.50;45.00;;;;;;5057989;28;20044;-60
2021/07/14 10:35:27;;;;;;;9.95;4.95;;;43.90;39.60;;;;;;5093292;28;20028;-61
2021/07/14 10:37:57;;;;;;;14.55;9.18;;;43.40;66.70;;;;;;5093517;28;20058;-60
2021/07/14 10:40:23;;;;;;;15.67;9.73;;;43.10;58.80;;;;;;5093406;28;20032;-60
2021/07/14 10:42:50;;;;;;;14.18;7.00;;;43.00;56.70;;;;;;5093191;28;20139;-61
2021/07/14 10:45:17;;;;;;;9.70;4.95;;;42.90;63.60;;;;;;5093480;28;20032;-60
2021/07/14 10:47:47;;;;;;;19.20;7.60;;;42.10;68.80;;;;;;5093974;28;20379;-61
2021/07/14 10:50:15;;;;;;;26.30;7.63;;;42.20;41.30;;;;;;5093718;28;20039;-60
2021/07/14 10:52:41;;;;;;;12.85;4.50;;;;;;;;;;5093450;28;20036;-59
2021/07/14 10:55:15;;;;;;;14.02;4.15;;;41.70;67.80;;;;;;5093382;28;20059;-61
2021/07/14 10:57:41;;;;;;;13.70;4.63;;;40.60;40.00;;;;;;5094092;28;20043;-60
2021/07/14 11:00:09;;;;;;;13.60;5.00;;;40.40;52.70;;;;;;5093281;28;20028;-61
2021/07/14 11:02:39;;;;;;;98.97;18.63;;;;;;;;;;5041800;28;20044;-60
2021/07/14 11:05:06;;;;;;;42.50;11.23;;;;;;;;;;5093504;28;20092;-59
2021/07/14 11:07:44;;;;;;;16.33;6.38;;;43.40;38.60;;;;;;5093463;28;20394;-60
2021/07/14 11:10:38;;;;;;;16.85;6.78;;;43.10;39.10;;;;;;5058028;28;20118;-60
2021/07/14 11:13:23;;;;;;;14.98;5.50;;;;;;;;;;5092887;28;20043;-60
2021/07/14 11:15:49;;;;;;;12.73;5.50;;;;;;;;;;5093408;28;20028;-61
2021/07/14 11:18:30;;;;;;;10.02;4.95;;;;;;;;;;5057959;28;20071;-60
2021/07/14 11:21:00;;;;;;;13.20;6.38;;;;;;;;;;5097146;28;20036;-60
2021/07/14 11:23:27;;;;;;;11.17;5.50;;;;;;;;;;5096806;28;20036;-61
2021/07/14 11:25:57;;;;;;;10.38;4.65;;;;;;;;;;5096957;28;20127;-59
2021/07/14 11:28:24;;;;;;;12.75;4.80;;;53.60;61.50;;;;;;5096929;28;20119;-60
2021/07/14 11:30:54;;;;;;;12.18;5.10;;;;;;;;;;5096630;28;20036;-60
2021/07/14 11:33:24;;;;;;;9.88;5.05;;;55.70;52.60;;;;;;5096440;28;20044;-61
2021/07/14 11:35:50;;;;;;;;;;;;;;;;;;5097409;28;20116;-61
2021/07/14 11:38:28;;;;;;;15.13;5.03;;;;;;;;;;5096785;28;19955;-61
2021/07/14 11:40:56;;;;;;;13.50;4.97;;;;;;;;;;5096814;28;20028;-60
2021/07/14 11:43:24;;;;;;;14.95;5.72;;;;;;;;;;5060557;28;20048;-61
2021/07/14 11:45:56;;;;;;;11.98;4.70;;;56.40;30.50;;;;;;5060575;28;20035;-62
2021/07/14 11:48:21;;;;;;;8.82;4.40;;;55.20;32.20;;;;;;5077780;28;20036;-61
2021/07/14 11:50:54;;;;;;;10.63;4.82;;;53.90;32.00;;;;;;5095567;28;20496;-60
2021/07/14 11:53:41;;;;;;;10.00;4.88;;;53.80;32.70;;;;;;5095817;28;20043;-60
2021/07/14 11:56:15;;;;;;;19.25;7.47;;;55.00;32.70;;;;;;5096147;28;20024;-60
2021/07/14 11:58:58;;;;;;;8.73;4.43;;;;;;;;;;5061555;28;20044;-60
2021/07/14 12:01:24;;;;;;;9.52;4.57;;;55.10;30.60;;;;;;5096206;28;20442;-60
2021/07/14 12:04:02;;;;;;;15.07;5.38;;;;;;;;;;5096288;28;20028;-61
2021/07/14 12:06:37;;;;;;;12.15;4.43;;;58.50;55.10;;;;;;5096218;28;20073;-62
2021/07/14 12:09:23;;;;;;;8.73;4.22;;;54.90;31.10;;;;;;5096278;28;20107;-61
2021/07/14 12:12:03;;;;;;;11.98;3.95;;;56.20;38.10;;;;;;5095805;28;20031;-60
2021/07/14 12:14:33;;;;;;;13.90;4.32;;;53.90;31.60;;;;;;5095934;28;20028;-59
2021/07/14 12:17:09;;;;;;;14.73;4.30;;;52.90;30.80;;;;;;5060584;28;20047;-60
2021/07/14 12:19:38;;;;;;;10.18;4.97;;;;;;;;;;5094846;28;20088;-60
2021/07/14 12:22:14;;;;;;;10.25;4.75;;;;;;;;;;5095371;28;20031;-61
2021/07/14 12:24:41;;;;;;;17.45;6.40;;;;;;;;;;5095760;28;20032;-60
2021/07/14 12:27:13;;;;;;;14.88;4.80;;;56.70;31.80;;;;;;5060810;28;20123;-59
2021/07/14 12:29:40;;;;;;;18.48;5.25;;;57.50;30.80;;;;;;5095855;28;20546;-60
2021/07/14 12:32:06;;;;;;;16.40;5.03;;;;;;;;;;5076868;28;20048;-61
2021/07/14 12:34:34;;;;;;;15.93;4.70;;;58.30;30.80;;;;;;5095656;28;20028;-61
2021/07/14 12:37:01;;;;;;;12.73;3.88;;;58.90;31.20;;;;;;5095378;28;20058;-61
2021/07/14 12:39:30;;;;;;;10.13;4.50;;;57.20;30.30;;;;;;5059895;28;20036;-60
2021/07/14 12:41:58;;;;;;;8.25;3.97;;;57.40;30.00;;;;;;5094065;28;20027;-62
2021/07/14 12:44:25;;;;;;;14.85;4.63;;;58.00;30.70;;;;;;5095318;28;20051;-60
2021/07/14 12:46:51;;;;;;;13.82;4.57;;;56.30;30.10;;;;;;5095397;28;20501;-61
2021/07/14 12:49:20;;;;;;;10.80;4.38;;;58.70;31.20;;;;;;5076332;28;20036;-61
2021/07/14 12:52:17;;;;;;;9.00;4.43;;;59.50;30.50;;;;;;5095083;28;20066;-60
2021/07/14 12:54:45;;;;;;;13.15;4.30;;;60.30;30.10;;;;;;5076960;28;20077;-60
2021/07/14 12:57:15;;;;;;;10.35;4.78;;;59.90;29.30;;;;;;5095078;28;20067;-60
2021/07/14 13:00:06;;;;;;;10.75;4.35;;;61.20;43.50;;;;;;5089918;28;20031;-61
2021/07/14 13:02:42;;;;;;;10.00;4.30;;;61.80;42.50;;;;;;5093559;28;20474;-61
2021/07/14 13:05:16;;;;;;;16.52;4.80;;;61.60;42.90;;;;;;5087376;28;20036;-60
2021/07/14 13:07:49;;;;;;;11.45;4.47;;;;;;;;;;5074041;28;20040;-60
2021/07/14 13:10:17;;;;;;;11.00;4.43;;;;;;;;;;5094908;28;20024;-60
2021/07/14 13:12:44;;;;;;;12.05;4.20;;;;;;;;;;5094841;28;20032;-60
2021/07/14 13:15:11;;;;;;;9.23;4.10;;;;;;;;;;5095170;28;20111;-61
2021/07/14 13:17:38;;;;;;;10.63;4.60;;;;;;;;;;5079456;28;20072;-61
2021/07/14 13:20:15;;;;;;;26.90;9.63;;;;;;;;;;5073960;28;20036;-62
2021/07/14 13:22:43;;;;;;;17.63;7.13;;;;;;;;;;5056126;28;20032;-61